Portada
METAR-TAF:

METAR-TAF

Aeroports :

Hassi Messaoud, Algèria

latitud: 31-40N, longitud: 006-09E, altitud: 142 m

Observació

L'informe es va fer fa 17 minuts, a les 10:00 UTC
Vent 11 kt del Sud
Temperatura 30°C
Humitat 29%
Pressió 1014 hPa
Visibilitat 10 km o més
Escasses núvols a una alçada de 4000 ft

METAR: DAUH 151000Z 17011KT 9999 FEW040 30/10 Q1014

Hora: 11:17 (10:17 UTC)

Pronòstic

L'informe es va fer fa 5 hores i 17 minuts, a les 05:00 UTC
Pronòstic vàlid del 15 a les 06 UTC al 16 a les 06 UTC
Vent 8 kt del Sud-Est
Visibilitat 10 km o més
sense núvols per sota de 1500 mi sense presència de cumulonimbus.
Evolucionant progressivament
l' 15 a les 08 UTC al 15 a les 11 UTC
Vent 10 kt del Est
Evolucionant progressivament
l' 15 a les 20 UTC al 15 a les 23 UTC
Vent 8 kt del Nord/Nord-Est

TAF: DAUH 150500Z 1506/1606 14008KT CAVOK BECMG 1508/1511 08010KT BECMG 1520/1523 02008KT

Observacions i pronòstics meteorològics de més de 4000 aeroports (METAR i TAF).

Les estacions disponibles són els punts grocs i vermells al mapa.

Posi el ratolí al punt desitjat per veure el nom de l'estació.

Feu clic per veure les observacions i els pronòstics meteorològics.

Per canviar el mapa: feu clic els botons verds amb una creu de color negre per apropar; al botó verd amb un guió per allunyar la imatge; o en les fletxes verdes per a mapes adjacents.


METAR-TAF: